Agadir Al Massira, Morocco
Current Conditions -  °F | °C
As of 10:00 PM on Wednesday 22 Oct 2014 (Local Time) from GMAD Reporting Station
Clear Clear  
Wind Chill: 21°   Ceiling: Unl
Heat Index: 21°   Visibility: 6mi
Dew Point: 11°   Wind: 2mph
Humidity: 53%   Direction: 310°NW
Pressure: 30.03"   Gusts: NA
Location:  30.33°N, 9.4°W
Report Text: GMAD 222100Z 31002KT CAVOK 21/11 Q1017 NOSIG
Loading
Personal Weather Stations






























Interactive Weather Map
Tropical Storm Tracking
New forecast layout! Learn more

10-Day Weather Forecast

Advertisements
Track Severe Weather on mobile